Time;durP1;ratioP1;P1;durP2;ratioP2;P2;SDS_P1;SDS_P2;PMS_P1;PMS_P2;Temp;Humidity;BMP_temperature;BMP_pressure;BME280_temperature;BME280_humidity;BME280_pressure;Samples;Min_cycle;Max_cycle;Signal;HPM_P1;HPM_P2
2024/04/24 00:02:12;;;;;;;;;;;;;;;14.78;61.39;97735.53;6581320;21;19922;-81
2024/04/24 00:04:37;;;;;;;;;;;;;;;14.77;61.42;97739.16;6580863;21;19925;-81
2024/04/24 00:07:05;;;;;;;;;;;;;;;14.78;61.71;97753.09;6580745;21;20000;-81
2024/04/24 00:09:30;;;;;;;;;;;;;;;14.77;61.57;97759.34;6582714;21;19928;-81
2024/04/24 00:11:55;;;;;;;;;;;;;;;14.75;61.42;97751.63;6579950;21;19933;-80
2024/04/24 00:14:21;;;;;;;;;;;;;;;14.75;61.56;97748.19;6583004;21;19922;-81
2024/04/24 00:16:49;;;;;;;;;;;;;;;14.74;61.64;97755.25;6580906;21;19921;-81
2024/04/24 00:19:14;;;;;;;;;;;;;;;14.74;61.58;97751.81;6580330;21;19967;-80
2024/04/24 00:21:39;;;;;;;;;;;;;;;14.73;61.58;97747.53;6536407;21;20314;-82
2024/04/24 00:24:05;;;;;;;;;;;;;;;14.72;61.45;97730.13;6582100;21;19929;-83
2024/04/24 00:26:32;;;;;;;;;;;;;;;14.71;61.77;97729.31;6578953;21;19983;-81
2024/04/24 00:29:00;;;;;;;;;;;;;;;14.70;61.76;97734.75;6580046;21;19928;-81
2024/04/24 00:31:25;;;;;;;;;;;;;;;14.69;61.50;97740.97;6579247;21;19922;-82
2024/04/24 00:33:51;;;;;;;;;;;;;;;14.68;61.63;97726.22;6579617;21;20373;-81
2024/04/24 00:36:16;;;;;;;;;;;;;;;14.67;61.62;97733.25;6580629;21;19921;-81
2024/04/24 00:38:41;;;;;;;;;;;;;;;14.66;61.65;97731.63;6535244;21;19922;-81
2024/04/24 00:41:06;;;;;;;;;;;;;;;14.66;61.82;97726.38;6536712;21;20479;-81
2024/04/24 00:43:32;;;;;;;;;;;;;;;14.65;61.79;97728.16;6580278;21;19949;-81
2024/04/24 00:46:00;;;;;;;;;;;;;;;14.65;61.66;97720.28;6535889;21;19921;-81
2024/04/24 00:48:25;;;;;;;;;;;;;;;14.64;61.85;97713.41;6582427;21;19921;-81
2024/04/24 00:50:51;;;;;;;;;;;;;;;14.64;61.82;97715.19;6579803;21;19921;-81
2024/04/24 00:53:16;;;;;;;;;;;;;;;14.64;61.69;97713.41;6582903;21;20322;-81
2024/04/24 00:55:43;;;;;;;;;;;;;;;14.63;61.51;97711.75;6537079;21;20217;-80
2024/04/24 00:58:09;;;;;;;;;;;;;;;14.63;61.84;97703.06;6580581;21;19921;-81
2024/04/24 01:00:36;;;;;;;;;;;;;;;14.62;61.90;97707.50;6536324;21;19921;-81
2024/04/24 01:03:02;;;;;;;;;;;;;;;14.61;61.78;97708.50;6580354;21;19929;-81
2024/04/24 01:05:27;;;;;;;;;;;;;;;14.61;61.81;97707.66;6536143;21;19921;-82
2024/04/24 01:07:52;;;;;;;;;;;;;;;14.61;61.82;97710.28;6580535;21;19921;-81
2024/04/24 01:10:20;;;;;;;;;;;;;;;14.59;61.56;97705.16;6580176;21;19933;-83
2024/04/24 01:12:45;;;;;;;;;;;;;;;14.60;61.94;97709.47;6580311;21;20213;-82
2024/04/24 01:15:11;;;;;;;;;;;;;;;14.59;61.64;97709.59;6579999;21;19921;-80
2024/04/24 01:17:36;;;;;;;;;;;;;;;14.58;61.84;97700.09;6582809;21;19921;-83
2024/04/24 01:20:01;;;;;;;;;;;;;;;14.57;61.60;97701.91;6535795;21;20248;-81
2024/04/24 01:22:48;;;;;;;;;;;;;;;14.55;61.99;97706.50;6580512;21;19927;-81
2024/04/24 01:25:13;;;;;;;;;;;;;;;14.56;61.79;97707.31;6581905;21;19928;-81
2024/04/24 01:27:38;;;;;;;;;;;;;;;14.54;61.98;97720.63;6579497;21;19921;-81
2024/04/24 01:30:04;;;;;;;;;;;;;;;14.54;61.64;97712.75;6579962;21;19928;-82
2024/04/24 01:32:29;;;;;;;;;;;;;;;14.54;61.74;97707.47;6579916;21;20000;-82
2024/04/24 01:34:57;;;;;;;;;;;;;;;14.54;61.77;97722.44;6579915;21;20314;-81
2024/04/24 01:37:22;;;;;;;;;;;;;;;14.53;61.83;97716.38;6536774;21;20247;-79
2024/04/24 01:39:47;;;;;;;;;;;;;;;14.52;61.61;97729.66;6535846;21;19921;-82
2024/04/24 01:42:13;;;;;;;;;;;;;;;14.51;61.66;97720.94;6580145;21;20317;-81
2024/04/24 01:44:38;;;;;;;;;;;;;;;14.50;61.76;97716.69;6583427;21;20238;-78
2024/04/24 01:47:04;;;;;;;;;;;;;;;14.50;61.56;97711.44;6582545;21;19929;-78
2024/04/24 01:49:29;;;;;;;;;;;;;;;14.48;61.92;97709.00;6581801;21;20252;-78
2024/04/24 01:51:54;;;;;;;;;;;;;;;14.49;61.64;97709.78;6538523;21;19933;-78
2024/04/24 01:54:19;;;;;;;;;;;;;;;14.47;62.02;97709.97;6582327;21;20314;-79
2024/04/24 01:56:45;;;;;;;;;;;;;;;14.46;61.69;97713.56;6582593;21;20242;-79
2024/04/24 01:59:10;;;;;;;;;;;;;;;14.45;61.43;97706.69;6539178;21;19922;-78
2024/04/24 02:01:35;;;;;;;;;;;;;;;14.44;61.70;97704.25;6538987;21;19921;-79
2024/04/24 02:04:01;;;;;;;;;;;;;;;14.44;61.52;97696.34;6581495;21;20304;-78
2024/04/24 02:06:26;;;;;;;;;;;;;;;14.44;61.62;97701.59;6581279;21;19921;-78
2024/04/24 02:08:51;;;;;;;;;;;;;;;14.43;61.65;97700.78;6537852;21;20343;-78
2024/04/24 02:11:19;;;;;;;;;;;;;;;14.43;61.57;97699.97;6537899;21;20013;-78
2024/04/24 02:13:45;;;;;;;;;;;;;;;14.43;61.95;97699.97;6581908;21;19928;-78
2024/04/24 02:16:10;;;;;;;;;;;;;;;14.41;61.67;97704.56;6537236;21;19921;-78
2024/04/24 02:18:35;;;;;;;;;;;;;;;14.40;61.83;97716.84;6581619;21;19921;-79
2024/04/24 02:21:04;;;;;;;;;;;;;;;14.38;61.67;97695.22;6584307;21;19922;-78
2024/04/24 02:23:34;;;;;;;;;;;;;;;14.39;61.84;97698.66;6583187;21;19986;-78
2024/04/24 02:25:59;;;;;;;;;;;;;;;14.38;61.39;97708.34;6538845;21;20293;-78
2024/04/24 02:28:24;;;;;;;;;;;;;;;14.37;61.58;97698.00;6581055;21;20322;-78
2024/04/24 02:30:49;;;;;;;;;;;;;;;14.36;61.68;97696.34;6581184;21;19929;-78
2024/04/24 02:33:15;;;;;;;;;;;;;;;14.35;61.83;97707.84;6536571;21;19922;-78
2024/04/24 02:35:40;;;;;;;;;;;;;;;14.34;61.80;97714.09;6537621;21;19991;-78
2024/04/24 02:38:06;;;;;;;;;;;;;;;14.30;61.46;97706.53;6537280;21;20004;-78
2024/04/24 02:40:32;;;;;;;;;;;;;;;14.32;61.66;97713.44;6537567;21;19925;-78
2024/04/24 02:42:57;;;;;;;;;;;;;;;14.30;61.80;97703.91;6583709;21;20328;-78
2024/04/24 02:45:24;;;;;;;;;;;;;;;14.27;61.46;97693.75;6537118;21;19945;-78
2024/04/24 02:47:50;;;;;;;;;;;;;;;14.27;61.71;97690.31;6583077;21;19995;-78
2024/04/24 02:50:15;;;;;;;;;;;;;;;14.26;61.89;97691.28;6537620;21;19921;-79
2024/04/24 02:52:40;;;;;;;;;;;;;;;14.25;61.73;97693.09;6580929;21;20000;-78
2024/04/24 02:55:06;;;;;;;;;;;;;;;14.24;61.67;97696.69;6580918;21;20214;-78
2024/04/24 02:57:34;;;;;;;;;;;;;;;14.24;61.71;97698.50;6580989;21;20212;-78
2024/04/24 02:59:59;;;;;;;;;;;;;;;14.21;61.78;97694.41;6583143;21;20387;-78
2024/04/24 03:02:24;;;;;;;;;;;;;;;14.20;61.42;97690.16;6580991;21;19929;-78
2024/04/24 03:04:49;;;;;;;;;;;;;;;14.20;61.60;97690.16;6580696;21;19921;-78
2024/04/24 03:07:15;;;;;;;;;;;;;;;14.19;61.72;97690.31;6581472;21;20228;-78
2024/04/24 03:09:40;;;;;;;;;;;;;;;14.16;61.61;97686.22;6583521;21;19932;-78
2024/04/24 03:12:05;;;;;;;;;;;;;;;14.15;61.59;97675.88;6580716;21;19921;-78
2024/04/24 03:14:31;;;;;;;;;;;;;;;14.14;61.80;97669.81;6583177;21;19995;-78
2024/04/24 03:16:56;;;;;;;;;;;;;;;14.11;61.29;97672.78;6581138;21;19929;-78
2024/04/24 03:19:21;;;;;;;;;;;;;;;14.11;61.59;97675.41;6581223;21;20206;-78
2024/04/24 03:21:47;;;;;;;;;;;;;;;14.10;61.56;97676.38;6583652;21;20336;-78
2024/04/24 03:24:12;;;;;;;;;;;;;;;14.09;61.33;97688.69;6579907;21;19921;-77
2024/04/24 03:26:37;;;;;;;;;;;;;;;14.09;61.73;97693.13;6578597;21;19933;-78
2024/04/24 03:29:02;;;;;;;;;;;;;;;14.07;61.37;97690.66;6581993;21;19999;-78
2024/04/24 03:31:31;;;;;;;;;;;;;;;14.08;61.21;97696.72;6580339;21;19921;-79
2024/04/24 03:33:56;;;;;;;;;;;;;;;14.07;61.37;97708.19;6580386;21;19929;-79
2024/04/24 03:36:24;;;;;;;;;;;;;;;14.07;61.30;97716.06;6580180;21;19921;-79
2024/04/24 03:38:53;;;;;;;;;;;;;;;14.09;61.48;97719.38;6580584;21;19927;-78
2024/04/24 03:41:29;;;;;;;;;;;;;;;14.11;61.31;97717.38;6538061;21;19929;-78
2024/04/24 03:43:54;;;;;;;;;;;;;;;14.13;61.27;97715.41;6578787;21;19992;-79
2024/04/24 03:46:20;;;;;;;;;;;;;;;14.15;61.11;97710.00;6580173;21;19932;-82
2024/04/24 03:48:45;;;;;;;;;;;;;;;14.18;60.74;97718.34;6539675;21;20004;-89
2024/04/24 03:51:13;;;;;;;;;;;;;;;14.24;60.84;97727.38;6539554;21;19921;-81
2024/04/24 03:53:38;;;;;;;;;;;;;;;14.43;65.02;97727.03;6582047;21;20302;-80
2024/04/24 03:56:03;;;;;;;;;;;;;;;14.55;63.73;97717.00;6536944;21;19929;-79
2024/04/24 03:58:28;;;;;;;;;;;;;;;14.65;63.02;97730.78;6581016;21;19933;-81
2024/04/24 04:00:56;;;;;;;;;;;;;;;15.08;66.13;97727.06;6583464;21;19922;-79
2024/04/24 04:03:22;;;;;;;;;;;;;;;15.30;64.85;97720.22;6583206;21;20318;-80
2024/04/24 04:05:47;;;;;;;;;;;;;;;15.34;63.44;97719.72;6580966;21;19928;-81
2024/04/24 04:08:12;;;;;;;;;;;;;;;15.40;62.39;97725.28;6581074;21;19933;-81
2024/04/24 04:10:38;;;;;;;;;;;;;;;15.45;61.72;97722.94;6537646;21;19991;-77
2024/04/24 04:13:03;;;;;;;;;;;;;;;15.64;65.19;97721.66;6585998;21;19921;-81
2024/04/24 04:15:28;;;;;;;;;;;;;;;16.08;64.81;97721.91;6585340;21;19921;-82
2024/04/24 04:17:54;;;;;;;;;;;;;;;16.32;62.66;97712.16;6580489;21;19921;-79
2024/04/24 04:20:19;;;;;;;;;;;;;;;16.50;61.36;97708.38;6580182;21;20214;-78
2024/04/24 04:22:44;;;;;;;;;;;;;;;16.70;60.05;97717.38;6536902;21;20015;-78
2024/04/24 04:25:10;;;;;;;;;;;;;;;16.94;58.72;97718.94;6580079;21;20337;-79
2024/04/24 04:27:35;;;;;;;;;;;;;;;17.18;58.18;97707.28;6581760;21;19921;-79
2024/04/24 04:30:00;;;;;;;;;;;;;;;17.44;57.04;97699.84;6584119;21;20303;-81
2024/04/24 04:32:26;;;;;;;;;;;;;;;17.83;58.37;97701.28;6579957;21;19928;-78
2024/04/24 04:34:51;;;;;;;;;;;;;;;18.22;56.63;97707.94;6535121;21;19922;-79
2024/04/24 04:37:16;;;;;;;;;;;;;;;18.50;55.10;97704.47;6580653;21;19921;-80
2024/04/24 04:39:42;;;;;;;;;;;;;;;18.78;54.22;97712.38;6536144;21;20360;-80
2024/04/24 04:42:07;;;;;;;;;;;;;;;19.03;52.96;97712.75;6576927;21;20226;-79
2024/04/24 04:44:34;;;;;;;;;;;;;;;19.34;52.21;97714.13;6581903;21;19925;-81
2024/04/24 04:46:59;;;;;;;;;;;;;;;19.52;51.54;97714.34;6579449;21;20241;-79
2024/04/24 04:49:24;;;;;;;;;;;;;;;19.94;50.44;97711.63;6580846;21;19921;-80
2024/04/24 04:51:52;;;;;;;;;;;;;;;20.23;49.54;97710.41;6582607;21;19921;-77
2024/04/24 04:54:17;;;;;;;;;;;;;;;20.80;48.45;97711.81;6579895;21;19932;-80
2024/04/24 04:56:43;;;;;;;;;;;;;;;21.32;46.98;97710.81;6582175;21;19921;-79
2024/04/24 04:59:08;;;;;;;;;;;;;;;21.82;46.08;97698.69;6576578;21;19960;-80
2024/04/24 05:01:33;;;;;;;;;;;;;;;22.32;44.84;97703.28;6578070;21;20309;-80
2024/04/24 05:03:59;;;;;;;;;;;;;;;22.81;44.02;97701.56;6579886;21;20342;-81
2024/04/24 05:06:24;;;;;;;;;;;;;;;23.36;42.64;97706.06;6577167;21;19921;-81
2024/04/24 05:08:49;;;;;;;;;;;;;;;23.86;41.80;97707.66;6579204;21;19921;-81
2024/04/24 05:11:15;;;;;;;;;;;;;;;24.32;40.72;97711.47;6579430;21;20280;-81
2024/04/24 05:13:40;;;;;;;;;;;;;;;24.74;39.92;97718.56;6579818;21;20317;-81
2024/04/24 05:16:09;;;;;;;;;;;;;;;25.20;39.19;97708.84;6578540;21;19929;-82
2024/04/24 05:18:34;;;;;;;;;;;;;;;25.65;38.32;97712.66;6578855;21;19921;-81
2024/04/24 05:21:00;;;;;;;;;;;;;;;25.99;37.63;97718.88;6581291;21;20355;-83
2024/04/24 05:23:25;;;;;;;;;;;;;;;26.35;37.10;97716.78;6581331;21;19929;-82
2024/04/24 05:25:55;;;;;;;;;;;;;;;26.73;36.48;97708.28;6535110;21;20313;-82
2024/04/24 05:31:04;;;;;;;;;;;;;;;27.42;35.70;97713.97;6579698;21;19987;-83
2024/04/24 05:33:32;;;;;;;;;;;;;;;27.74;34.99;97707.06;6535304;21;19921;-82
2024/04/24 05:35:57;;;;;;;;;;;;;;;27.98;34.62;97713.75;6536933;21;19921;-80
2024/04/24 05:38:22;;;;;;;;;;;;;;;28.26;34.43;97706.47;6534680;21;20222;-80
2024/04/24 05:40:48;;;;;;;;;;;;;;;28.51;34.04;97711.19;6580030;21;19922;-81
2024/04/24 05:43:13;;;;;;;;;;;;;;;28.75;33.57;97708.16;6581398;21;20229;-81
2024/04/24 05:45:38;;;;;;;;;;;;;;;29.00;33.54;97707.47;6579011;21;19929;-81
2024/04/24 05:48:04;;;;;;;;;;;;;;;29.25;32.98;97711.34;6578752;21;19932;-80
2024/04/24 05:50:32;;;;;;;;;;;;;;;29.56;32.10;97708.75;6578895;21;20000;-81
2024/04/24 05:52:57;;;;;;;;;;;;;;;29.71;32.33;97721.41;6535922;21;19921;-82
2024/04/24 05:55:25;;;;;;;;;;;;;;;29.86;32.54;97723.34;6580281;21;19925;-81
2024/04/24 05:57:50;;;;;;;;;;;;;;;29.85;32.54;97719.03;6578866;21;20302;-83
2024/04/24 06:00:16;;;;;;;;;;;;;;;30.04;31.75;97724.72;6578883;21;19928;-84
2024/04/24 06:02:43;;;;;;;;;;;;;;;30.20;30.77;97725.50;6582099;21;19921;-81
2024/04/24 06:05:09;;;;;;;;;;;;;;;30.32;31.15;97723.34;6538699;21;19921;-81
2024/04/24 06:07:34;;;;;;;;;;;;;;;30.42;30.75;97726.06;6579004;21;19921;-81
2024/04/24 06:09:59;;;;;;;;;;;;;;;30.53;30.65;97726.84;6535462;21;19928;-81
2024/04/24 06:12:25;;;;;;;;;;;;;;;30.62;30.37;97725.22;6582413;21;19921;-82
2024/04/24 06:14:50;;;;;;;;;;;;;;;30.77;30.51;97719.00;6578128;21;19933;-81
2024/04/24 06:17:15;;;;;;;;;;;;;;;30.84;30.54;97713.34;6535964;21;19933;-80
2024/04/24 06:19:41;;;;;;;;;;;;;;;30.92;30.75;97706.59;6582848;21;20321;-82
2024/04/24 06:22:06;;;;;;;;;;;;;;;31.04;30.89;97712.47;6536124;21;19932;-80
2024/04/24 06:24:31;;;;;;;;;;;;;;;31.15;30.30;97707.84;6581123;21;19960;-80
2024/04/24 06:26:59;;;;;;;;;;;;;;;31.21;30.11;97714.84;6581120;21;19921;-84
2024/04/24 06:29:24;;;;;;;;;;;;;;;31.42;29.91;97720.91;6578866;21;19932;-84
2024/04/24 06:31:50;;;;;;;;;;;;;;;31.48;30.31;97716.31;6580222;21;19929;-82
2024/04/24 06:34:16;;;;;;;;;;;;;;;31.61;30.19;97714.91;6538095;21;20306;-83
2024/04/24 06:36:41;;;;;;;;;;;;;;;31.74;30.03;97711.63;6581423;21;20372;-80
2024/04/24 06:39:07;;;;;;;;;;;;;;;31.88;29.81;97711.75;6582635;21;19922;-81
2024/04/24 06:41:32;;;;;;;;;;;;;;;32.00;29.85;97706.03;6580696;21;19928;-81
2024/04/24 06:43:57;;;;;;;;;;;;;;;32.13;29.98;97713.50;6582169;21;20000;-83
2024/04/24 06:46:23;;;;;;;;;;;;;;;32.30;29.74;97712.28;6582641;21;20220;-83
2024/04/24 06:48:48;;;;;;;;;;;;;;;32.37;29.31;97710.88;6580048;21;19929;-81
2024/04/24 06:51:14;;;;;;;;;;;;;;;32.49;29.33;97709.69;6582152;21;19929;-83
2024/04/24 06:53:39;;;;;;;;;;;;;;;32.57;28.74;97712.53;6538225;21;19934;-81
2024/04/24 06:56:04;;;;;;;;;;;;;;;32.63;28.72;97708.72;6580810;21;19928;-81
2024/04/24 06:58:33;;;;;;;;;;;;;;;32.72;28.95;97719.72;6580410;21;20197;-79
2024/04/24 07:01:00;;;;;;;;;;;;;;;32.82;28.80;97713.41;6580837;21;19928;-82
2024/04/24 07:03:26;;;;;;;;;;;;;;;32.85;28.72;97714.75;6580960;21;19995;-80
2024/04/24 07:05:54;;;;;;;;;;;;;;;32.84;29.18;97719.31;6537999;21;19921;-81
2024/04/24 07:08:22;;;;;;;;;;;;;;;32.86;28.37;97717.13;6580719;21;19927;-81
2024/04/24 07:10:48;;;;;;;;;;;;;;;33.07;27.98;97719.63;6538300;21;19921;-82
2024/04/24 07:13:13;;;;;;;;;;;;;;;33.12;27.92;97717.63;6581208;21;20213;-87
2024/04/24 07:15:40;;;;;;;;;;;;;;;33.25;27.93;97708.03;6537988;21;19922;-83
2024/04/24 07:18:05;;;;;;;;;;;;;;;33.09;28.40;97712.81;6537510;21;19922;-82
2024/04/24 07:20:31;;;;;;;;;;;;;;;32.83;28.41;97715.03;6536787;21;19922;-80
2024/04/24 07:22:57;;;;;;;;;;;;;;;33.13;27.50;97721.97;6537109;21;19921;-80
2024/04/24 07:25:22;;;;;;;;;;;;;;;33.21;27.54;97717.84;6581047;21;20331;-80
2024/04/24 07:27:48;;;;;;;;;;;;;;;33.29;27.50;97709.09;6579668;21;19921;-80
2024/04/24 07:30:13;;;;;;;;;;;;;;;33.31;27.46;97715.00;6536950;21;19929;-78
2024/04/24 07:32:38;;;;;;;;;;;;;;;33.23;28.26;97714.84;6583508;21;19928;-79
2024/04/24 07:35:05;;;;;;;;;;;;;;;33.42;28.21;97723.00;6537060;21;20376;-80
2024/04/24 07:37:30;;;;;;;;;;;;;;;33.54;28.08;97710.63;6581262;21;20281;-80
2024/04/24 07:39:55;;;;;;;;;;;;;;;33.66;27.87;97710.19;6581660;21;19933;-78
2024/04/24 07:42:21;;;;;;;;;;;;;;;33.81;27.01;97717.31;6580559;21;19926;-80
2024/04/24 07:44:46;;;;;;;;;;;;;;;33.95;26.74;97717.34;6581387;21;19922;-81
2024/04/24 07:47:12;;;;;;;;;;;;;;;34.00;27.43;97721.88;6580710;21;19933;-80
2024/04/24 07:49:37;;;;;;;;;;;;;;;34.06;27.10;97723.41;6580380;21;19921;-81
2024/04/24 07:52:03;;;;;;;;;;;;;;;34.24;27.52;97721.81;6538027;21;19932;-83
2024/04/24 07:54:29;;;;;;;;;;;;;;;34.37;26.66;97726.44;6538456;21;19922;-82
2024/04/24 07:56:54;;;;;;;;;;;;;;;34.45;27.51;97735.00;6580221;21;19929;-81
2024/04/24 07:59:19;;;;;;;;;;;;;;;34.62;26.77;97740.66;6536015;21;19921;-81
2024/04/24 08:01:45;;;;;;;;;;;;;;;34.77;25.98;97750.41;6582982;21;20276;-80
2024/04/24 08:04:12;;;;;;;;;;;;;;;34.81;26.59;97747.91;6581729;21;20403;-82
2024/04/24 08:06:37;;;;;;;;;;;;;;;34.90;25.45;97740.69;6583623;21;19922;-80
2024/04/24 08:09:03;;;;;;;;;;;;;;;35.00;25.67;97747.81;6583233;21;19921;-82
2024/04/24 08:11:28;;;;;;;;;;;;;;;34.93;26.17;97743.63;6586380;21;19921;-81
2024/04/24 08:13:54;;;;;;;;;;;;;;;35.07;26.74;97738.16;6540092;21;19929;-82
2024/04/24 08:16:19;;;;;;;;;;;;;;;35.11;26.04;97744.59;6535970;21;19921;-80
2024/04/24 08:18:48;;;;;;;;;;;;;;;35.06;25.59;97750.13;6579646;21;19929;-81
2024/04/24 08:21:14;;;;;;;;;;;;;;;35.12;25.75;97737.25;6582845;21;19928;-80
2024/04/24 08:23:39;;;;;;;;;;;;;;;35.15;26.28;97742.91;6580462;21;19921;-80
2024/04/24 08:26:04;;;;;;;;;;;;;;;35.09;27.15;97751.44;6582471;21;20222;-77
2024/04/24 08:28:29;;;;;;;;;;;;;;;35.14;26.08;97740.50;6536592;21;19921;-79
2024/04/24 08:31:04;;;;;;;;;;;;;;;35.05;27.05;97750.44;6582639;21;19933;-80
2024/04/24 08:33:30;;;;;;;;;;;;;;;35.10;26.73;97748.41;6583342;21;19921;-80
2024/04/24 08:35:58;;;;;;;;;;;;;;;34.87;26.19;97755.66;6580014;21;19921;-80
2024/04/24 08:38:23;;;;;;;;;;;;;;;34.88;26.98;97751.81;6580449;21;19922;-79
2024/04/24 08:40:49;;;;;;;;;;;;;;;34.89;26.82;97755.34;6580006;21;19921;-79
2024/04/24 08:43:14;;;;;;;;;;;;;;;34.92;25.94;97743.91;6580752;21;19932;-80
2024/04/24 08:45:39;;;;;;;;;;;;;;;34.46;27.16;97742.81;6536172;21;19928;-80
2024/04/24 08:48:05;;;;;;;;;;;;;;;34.10;26.79;97735.25;6580017;21;19930;-80
2024/04/24 08:50:30;;;;;;;;;;;;;;;34.35;27.75;97741.38;6579579;21;19922;-81
2024/04/24 08:52:57;;;;;;;;;;;;;;;34.41;28.02;97732.88;6536634;21;19921;-80
2024/04/24 08:55:23;;;;;;;;;;;;;;;33.85;27.80;97736.47;6580083;21;20309;-79
2024/04/24 08:57:48;;;;;;;;;;;;;;;33.67;28.05;97729.94;6580449;21;19921;-79
2024/04/24 09:00:13;;;;;;;;;;;;;;;33.77;28.24;97732.50;6580774;21;19921;-80
2024/04/24 09:02:41;;;;;;;;;;;;;;;33.81;27.97;97722.72;6582952;21;19928;-79
2024/04/24 09:05:06;;;;;;;;;;;;;;;33.82;28.50;97718.91;6581305;21;19929;-79
2024/04/24 09:07:32;;;;;;;;;;;;;;;33.71;28.20;97712.84;6536155;21;19921;-80
2024/04/24 09:09:57;;;;;;;;;;;;;;;33.61;28.72;97717.59;6579509;21;19942;-82
2024/04/24 09:12:23;;;;;;;;;;;;;;;33.63;28.79;97704.56;6536381;21;20201;-80
2024/04/24 09:14:48;;;;;;;;;;;;;;;33.53;28.93;97705.50;6535756;21;20306;-79
2024/04/24 09:17:13;;;;;;;;;;;;;;;33.57;28.37;97698.41;6579805;21;19929;-82
2024/04/24 09:19:39;;;;;;;;;;;;;;;33.50;28.96;97692.56;6536075;21;20280;-80
2024/04/24 09:22:05;;;;;;;;;;;;;;;33.48;28.41;97690.16;6582306;21;19921;-79
2024/04/24 09:24:31;;;;;;;;;;;;;;;33.37;29.10;97686.00;6582379;21;20198;-80
2024/04/24 09:26:56;;;;;;;;;;;;;;;33.28;28.89;97691.25;6579868;21;19922;-80
2024/04/24 09:29:21;;;;;;;;;;;;;;;33.21;29.36;97690.81;6579583;21;19925;-79
2024/04/24 09:31:47;;;;;;;;;;;;;;;33.14;29.72;97690.31;6579707;21;19933;-79
2024/04/24 09:34:13;;;;;;;;;;;;;;;33.03;29.38;97691.53;6579598;21;19929;-81
2024/04/24 09:36:40;;;;;;;;;;;;;;;32.88;29.90;97698.75;6536866;21;19991;-79
2024/04/24 09:39:24;;;;;;;;;;;;;;;32.78;29.96;97690.75;6578971;21;19922;-79
2024/04/24 09:41:49;;;;;;;;;;;;;;;32.63;30.30;97691.69;6580296;21;19933;-79
2024/04/24 09:44:15;;;;;;;;;;;;;;;32.55;30.40;97692.34;6579809;21;19922;-80
2024/04/24 09:46:44;;;;;;;;;;;;;;;32.45;30.59;97680.53;6579581;21;19929;-78
2024/04/24 09:49:09;;;;;;;;;;;;;;;32.28;30.58;97680.16;6535132;21;19921;-79
2024/04/24 09:51:35;;;;;;;;;;;;;;;32.07;31.39;97684.91;6579531;21;19928;-79
2024/04/24 09:54:01;;;;;;;;;;;;;;;32.03;31.26;97690.06;6579227;21;19949;-78
2024/04/24 09:56:27;;;;;;;;;;;;;;;32.03;31.63;97687.38;6581943;21;20340;-78
2024/04/24 09:58:56;;;;;;;;;;;;;;;31.96;31.67;97686.06;6578839;21;20221;-76
2024/04/24 10:01:21;;;;;;;;;;;;;;;31.84;31.59;97679.16;6581327;21;20349;-80
2024/04/24 10:03:47;;;;;;;;;;;;;;;31.72;31.39;97678.69;6536062;21;19921;-79
2024/04/24 10:06:14;;;;;;;;;;;;;;;31.62;32.55;97673.38;6580071;21;19929;-81
2024/04/24 10:08:39;;;;;;;;;;;;;;;31.54;31.92;97677.47;6581308;21;19921;-80
2024/04/24 10:11:05;;;;;;;;;;;;;;;31.42;32.47;97664.28;6581604;21;20314;-79
2024/04/24 10:13:32;;;;;;;;;;;;;;;31.27;33.09;97667.91;6581787;21;19926;-80
2024/04/24 10:16:03;;;;;;;;;;;;;;;31.20;32.43;97672.78;6581250;21;19921;-79
2024/04/24 10:18:28;;;;;;;;;;;;;;;31.11;33.33;97666.38;6581260;21;19954;-80
2024/04/24 10:20:57;;;;;;;;;;;;;;;31.03;33.24;97667.75;6581338;21;20310;-82
2024/04/24 10:23:24;;;;;;;;;;;;;;;30.95;33.24;97663.72;6583805;21;19949;-81
2024/04/24 10:25:49;;;;;;;;;;;;;;;30.89;32.94;97669.41;6581550;21;19932;-81
2024/04/24 10:28:17;;;;;;;;;;;;;;;30.76;33.58;97662.69;6583639;21;20305;-80
2024/04/24 10:30:42;;;;;;;;;;;;;;;30.70;33.22;97663.81;6581828;21;19922;-78
2024/04/24 10:33:08;;;;;;;;;;;;;;;30.49;33.59;97669.25;6536621;21;20356;-78
2024/04/24 10:35:33;;;;;;;;;;;;;;;30.40;33.78;97671.69;6581687;21;19929;-80
2024/04/24 10:38:02;;;;;;;;;;;;;;;30.35;33.39;97668.97;6581722;21;19922;-80
2024/04/24 10:40:28;;;;;;;;;;;;;;;30.27;33.64;97675.72;6581874;21;19991;-79
2024/04/24 10:42:57;;;;;;;;;;;;;;;30.16;33.53;97675.97;6580687;21;19957;-81
2024/04/24 10:45:33;;;;;;;;;;;;;;;30.10;34.54;97675.19;6537459;21;19964;-80
2024/04/24 10:47:59;;;;;;;;;;;;;;;30.06;34.94;97676.81;6583645;21;19921;-78
2024/04/24 10:50:27;;;;;;;;;;;;;;;30.01;35.06;97666.06;6581119;21;19921;-79
2024/04/24 10:52:52;;;;;;;;;;;;;;;29.98;34.88;97674.66;6536939;21;19922;-80
2024/04/24 10:55:18;;;;;;;;;;;;;;;29.89;34.90;97674.41;6581292;21;20384;-79
2024/04/24 10:57:50;;;;;;;;;;;;;;;29.81;34.91;97682.97;6581464;21;19929;-79
2024/04/24 11:00:16;;;;;;;;;;;;;;;29.71;34.95;97676.50;6581814;21;19921;-80
2024/04/24 11:02:42;;;;;;;;;;;;;;;29.59;34.87;97679.44;6538137;21;19994;-79
2024/04/24 11:05:08;;;;;;;;;;;;;;;29.49;35.39;97681.31;6537255;21;19928;-80
2024/04/24 11:07:33;;;;;;;;;;;;;;;29.35;35.25;97676.44;6580646;21;20237;-78
2024/04/24 11:09:59;;;;;;;;;;;;;;;29.23;35.14;97683.94;6581210;21;19921;-79
2024/04/24 11:12:24;;;;;;;;;;;;;;;29.13;35.41;97678.47;6581872;21;19992;-79
2024/04/24 11:14:49;;;;;;;;;;;;;;;28.98;35.73;97671.97;6580727;21;19932;-78
2024/04/24 11:17:15;;;;;;;;;;;;;;;28.86;36.13;97666.84;6579931;21;19929;-80
2024/04/24 11:19:40;;;;;;;;;;;;;;;28.78;36.26;97667.34;6580559;21;19922;-79
2024/04/24 11:22:06;;;;;;;;;;;;;;;28.67;36.45;97666.50;6537604;21;19921;-80
2024/04/24 11:24:31;;;;;;;;;;;;;;;28.47;36.80;97658.28;6535806;21;19921;-79
2024/04/24 11:26:57;;;;;;;;;;;;;;;28.25;36.96;97653.06;6580207;21;20027;-79
2024/04/24 11:29:22;;;;;;;;;;;;;;;28.04;38.05;97652.91;6580832;21;20317;-79
2024/04/24 11:31:47;;;;;;;;;;;;;;;28.08;37.93;97658.56;6536724;21;20303;-79
2024/04/24 11:34:13;;;;;;;;;;;;;;;28.04;37.73;97655.59;6537574;21;19929;-79
2024/04/24 11:36:38;;;;;;;;;;;;;;;28.02;37.64;97662.28;6581267;21;19928;-79
2024/04/24 11:39:03;;;;;;;;;;;;;;;27.96;38.01;97659.56;6581035;21;19921;-79
2024/04/24 11:41:30;;;;;;;;;;;;;;;27.98;37.44;97654.72;6536876;21;19921;-79
2024/04/24 11:43:55;;;;;;;;;;;;;;;27.93;37.85;97667.28;6537276;21;19948;-79
2024/04/24 11:46:23;;;;;;;;;;;;;;;27.93;37.52;97661.91;6580079;21;19922;-82
2024/04/24 11:48:49;;;;;;;;;;;;;;;27.89;37.80;97664.28;6536761;21;19933;-77
2024/04/24 11:51:15;;;;;;;;;;;;;;;27.82;37.90;97660.19;6536793;21;19945;-78
2024/04/24 11:53:45;;;;;;;;;;;;;;;27.78;37.80;97667.94;6580267;21;20226;-78
2024/04/24 11:56:10;;;;;;;;;;;;;;;27.71;37.46;97668.16;6536702;21;19991;-77
2024/04/24 11:58:35;;;;;;;;;;;;;;;27.69;38.10;97661.41;6580099;21;19929;-78
2024/04/24 12:01:01;;;;;;;;;;;;;;;27.67;37.78;97661.69;6580425;21;20380;-75
2024/04/24 12:03:26;;;;;;;;;;;;;;;27.63;37.82;97668.63;6580399;21;19949;-78
2024/04/24 12:05:52;;;;;;;;;;;;;;;27.58;38.58;97666.69;6580766;21;19921;-78
2024/04/24 12:08:27;;;;;;;;;;;;;;;27.54;38.55;97659.41;6536891;21;19921;-79
2024/04/24 12:10:56;;;;;;;;;;;;;;;27.53;38.13;97657.78;6580751;21;19945;-79
2024/04/24 12:13:23;;;;;;;;;;;;;;;27.38;38.29;97661.94;6580630;21;20317;-84
2024/04/24 12:15:58;;;;;;;;;;;;;;;27.34;38.41;97657.34;6537700;21;19928;-81
2024/04/24 12:18:24;;;;;;;;;;;;;;;27.25;39.22;97648.94;6580849;21;19921;-78
2024/04/24 12:20:49;;;;;;;;;;;;;;;27.16;39.58;97659.25;6580491;21;19921;-79
2024/04/24 12:23:17;;;;;;;;;;;;;;;27.17;39.49;97660.88;6580296;21;19929;-80
2024/04/24 12:25:42;;;;;;;;;;;;;;;27.09;38.96;97653.31;6580314;21;19921;-80
2024/04/24 12:28:07;;;;;;;;;;;;;;;26.96;39.37;97653.66;6580385;21;19927;-82
2024/04/24 12:30:33;;;;;;;;;;;;;;;27.04;39.11;97642.50;6536780;21;19921;-80
2024/04/24 12:32:58;;;;;;;;;;;;;;;27.03;39.51;97651.63;6580676;21;19927;-80
2024/04/24 12:35:23;;;;;;;;;;;;;;;26.89;39.45;97649.31;6537333;21;20321;-80
2024/04/24 12:37:49;;;;;;;;;;;;;;;26.78;39.94;97647.56;6537424;21;19921;-81
2024/04/24 12:40:15;;;;;;;;;;;;;;;26.71;40.47;97652.31;6582243;21;20305;-79
2024/04/24 12:42:40;;;;;;;;;;;;;;;26.66;40.23;97650.38;6579426;21;19921;-76
2024/04/24 12:45:06;;;;;;;;;;;;;;;26.69;40.74;97643.69;6579960;21;19996;-80